createdAt,value
2023-03-29T00:01:36.190Z,6.50
2023-03-29T00:04:04.632Z,6.40
2023-03-29T00:06:33.220Z,6.40
2023-03-29T00:09:01.549Z,6.40
2023-03-29T00:11:28.068Z,6.40
2023-03-29T00:13:54.832Z,6.20
2023-03-29T00:16:21.635Z,6.30
2023-03-29T00:18:48.288Z,6.40
2023-03-29T00:21:14.869Z,6.30
2023-03-29T00:23:41.397Z,6.20
2023-03-29T00:26:08.410Z,6.10
2023-03-29T00:28:35.408Z,5.60
2023-03-29T00:31:13.503Z,5.80
2023-03-29T00:33:41.330Z,5.90
2023-03-29T00:36:10.245Z,6.00
2023-03-29T00:38:37.324Z,5.90
2023-03-29T00:41:04.607Z,6.10
2023-03-29T00:43:31.457Z,5.90
2023-03-29T00:45:57.993Z,5.90
2023-03-29T00:48:27.159Z,5.90
2023-03-29T00:50:54.430Z,5.90
2023-03-29T00:53:29.348Z,5.80
2023-03-29T00:56:04.432Z,6.00
2023-03-29T00:58:39.111Z,6.00
2023-03-29T01:01:12.544Z,5.90
2023-03-29T01:04:17.852Z,6.00
2023-03-29T01:06:55.553Z,5.90
2023-03-29T01:09:24.055Z,5.80
2023-03-29T01:11:56.891Z,5.80
2023-03-29T01:14:34.380Z,5.90
2023-03-29T01:17:02.000Z,6.00
2023-03-29T01:19:33.914Z,5.80
2023-03-29T01:22:13.678Z,5.60
2023-03-29T01:24:52.307Z,5.20
2023-03-29T01:27:40.231Z,5.10
2023-03-29T01:30:14.044Z,4.80
2023-03-29T01:32:47.856Z,4.80
2023-03-29T01:35:25.846Z,4.70
2023-03-29T01:37:59.593Z,4.60
2023-03-29T01:40:31.049Z,4.60
2023-03-29T01:43:03.346Z,4.40
2023-03-29T01:45:45.458Z,4.50
2023-03-29T01:48:18.940Z,4.60
2023-03-29T01:50:50.916Z,4.50
2023-03-29T01:53:24.207Z,4.00
2023-03-29T01:55:54.660Z,3.80
2023-03-29T01:58:28.695Z,3.90
2023-03-29T02:00:55.600Z,3.90
2023-03-29T02:03:28.091Z,4.40
2023-03-29T02:05:55.577Z,4.70
2023-03-29T02:08:23.102Z,4.30
2023-03-29T02:10:51.701Z,4.60
2023-03-29T02:13:19.189Z,4.70
2023-03-29T02:15:48.493Z,4.80
2023-03-29T02:18:16.358Z,5.00
2023-03-29T02:20:47.305Z,4.70
2023-03-29T02:23:18.553Z,4.10
2023-03-29T02:25:45.865Z,3.70
2023-03-29T02:28:13.017Z,4.10
2023-03-29T02:31:04.579Z,4.00
2023-03-29T02:33:58.767Z,4.00
2023-03-29T02:36:29.340Z,4.20
2023-03-29T02:38:57.098Z,4.30
2023-03-29T02:41:25.444Z,4.50
2023-03-29T02:43:53.175Z,4.80
2023-03-29T02:46:20.871Z,4.40
2023-03-29T02:48:49.766Z,4.60
2023-03-29T02:51:21.068Z,4.90
2023-03-29T02:53:59.210Z,5.10
2023-03-29T02:56:25.792Z,4.50
2023-03-29T02:58:52.301Z,4.50
2023-03-29T03:01:20.560Z,4.20
2023-03-29T03:03:50.640Z,3.90
2023-03-29T03:06:18.240Z,4.30
2023-03-29T03:08:44.896Z,4.00
2023-03-29T03:11:11.518Z,4.20
2023-03-29T03:13:38.000Z,4.10
2023-03-29T03:16:05.388Z,4.40
2023-03-29T03:18:32.491Z,4.10
2023-03-29T03:21:01.737Z,3.90
2023-03-29T03:23:28.648Z,3.70
2023-03-29T03:25:55.425Z,3.80
2023-03-29T03:28:24.130Z,3.50
2023-03-29T03:30:50.637Z,3.40
2023-03-29T03:33:18.047Z,3.30
2023-03-29T03:36:06.190Z,3.50
2023-03-29T03:38:36.164Z,3.40
2023-03-29T03:41:04.373Z,3.00
2023-03-29T03:43:33.564Z,3.20
2023-03-29T03:46:00.225Z,3.40
2023-03-29T03:48:27.021Z,3.50
2023-03-29T03:51:10.216Z,3.60
2023-03-29T03:53:37.070Z,3.90
2023-03-29T03:56:29.853Z,3.80
2023-03-29T03:59:15.653Z,4.00
2023-03-29T04:02:06.679Z,3.20
2023-03-29T04:04:35.840Z,3.60
2023-03-29T04:07:14.157Z,3.40
2023-03-29T04:10:01.002Z,3.70
2023-03-29T04:12:44.083Z,3.30
2023-03-29T04:15:12.077Z,3.30
2023-03-29T04:17:44.361Z,3.30
2023-03-29T04:20:27.061Z,3.20
2023-03-29T04:22:54.148Z,3.40
2023-03-29T04:25:22.294Z,3.30
2023-03-29T04:28:07.727Z,3.30
2023-03-29T04:30:49.234Z,3.10
2023-03-29T04:33:51.519Z,3.20
2023-03-29T04:36:19.162Z,3.60
2023-03-29T04:38:47.950Z,3.30
2023-03-29T04:41:15.984Z,3.30
2023-03-29T04:44:02.790Z,3.90
2023-03-29T04:46:32.345Z,3.90
2023-03-29T04:48:59.095Z,3.60
2023-03-29T04:51:34.430Z,3.00
2023-03-29T04:54:01.637Z,2.70
2023-03-29T04:56:28.563Z,2.80
2023-03-29T04:59:14.098Z,2.80
2023-03-29T05:01:41.548Z,2.90
2023-03-29T05:04:09.273Z,3.30
2023-03-29T05:06:44.962Z,2.90
2023-03-29T05:09:11.519Z,3.10
2023-03-29T05:11:45.288Z,3.50
2023-03-29T05:14:13.212Z,3.60
2023-03-29T05:16:40.860Z,3.70
2023-03-29T05:19:11.215Z,4.00
2023-03-29T05:21:45.747Z,4.40
2023-03-29T05:24:17.061Z,4.60
2023-03-29T05:26:53.476Z,4.60
2023-03-29T05:29:20.435Z,4.80
2023-03-29T05:31:53.086Z,4.70
2023-03-29T05:34:20.040Z,4.50
2023-03-29T05:36:51.759Z,4.70
2023-03-29T05:39:19.366Z,4.70
2023-03-29T05:41:46.456Z,4.50
2023-03-29T05:44:39.859Z,4.60
2023-03-29T05:47:14.462Z,4.70
2023-03-29T05:49:40.991Z,4.90
2023-03-29T05:52:16.971Z,5.00
2023-03-29T05:54:43.584Z,5.00
2023-03-29T05:57:11.959Z,4.90
2023-03-29T05:59:39.796Z,5.00
2023-03-29T06:02:06.855Z,5.10
2023-03-29T06:04:38.311Z,5.10
2023-03-29T06:07:32.057Z,4.80
2023-03-29T06:10:27.805Z,5.20
2023-03-29T06:13:06.978Z,4.60
2023-03-29T06:15:35.344Z,4.10
2023-03-29T06:18:05.864Z,4.30
2023-03-29T06:20:33.934Z,4.30
2023-03-29T06:23:07.941Z,4.30
2023-03-29T06:25:35.283Z,3.90
2023-03-29T06:28:02.221Z,3.60
2023-03-29T06:30:28.904Z,3.70
2023-03-29T06:32:57.690Z,4.10
2023-03-29T06:35:45.902Z,4.00
2023-03-29T06:38:16.558Z,3.70
2023-03-29T06:41:04.570Z,3.60
2023-03-29T06:43:48.338Z,3.50
2023-03-29T06:46:16.872Z,3.70
2023-03-29T06:48:55.974Z,3.70
2023-03-29T06:51:29.021Z,3.90
2023-03-29T06:53:55.584Z,4.20
2023-03-29T06:56:22.610Z,4.50
2023-03-29T06:59:01.074Z,4.00
2023-03-29T07:01:52.474Z,3.80
2023-03-29T07:04:41.687Z,4.00
2023-03-29T07:07:53.452Z,4.60
2023-03-29T07:10:32.365Z,4.70
2023-03-29T07:13:17.653Z,4.60
2023-03-29T07:15:45.036Z,4.50
2023-03-29T07:18:14.483Z,4.50
2023-03-29T07:20:42.367Z,4.50
2023-03-29T07:23:09.812Z,4.50
2023-03-29T07:25:37.134Z,4.60
2023-03-29T07:28:04.606Z,4.60
2023-03-29T07:30:32.510Z,4.50
2023-03-29T07:33:15.854Z,4.50
2023-03-29T07:35:48.426Z,4.60
2023-03-29T07:38:15.550Z,4.50
2023-03-29T07:40:47.372Z,4.70
2023-03-29T07:43:32.360Z,4.90
2023-03-29T07:46:04.598Z,4.80
2023-03-29T07:48:33.549Z,4.80
2023-03-29T07:51:05.163Z,4.90
2023-03-29T07:53:54.522Z,4.80
2023-03-29T07:56:30.744Z,4.90
2023-03-29T07:59:12.213Z,5.00
2023-03-29T08:01:44.611Z,5.30
2023-03-29T08:04:26.385Z,5.40
2023-03-29T08:07:12.493Z,5.50
2023-03-29T08:09:57.602Z,5.80
2023-03-29T08:12:38.029Z,5.80
2023-03-29T08:15:06.067Z,5.90
2023-03-29T08:17:34.973Z,5.80
2023-03-29T08:20:05.802Z,5.90
2023-03-29T08:22:33.338Z,5.90
2023-03-29T08:25:09.960Z,6.00
2023-03-29T08:27:42.365Z,6.10
2023-03-29T08:30:11.308Z,6.20
2023-03-29T08:32:39.378Z,6.40
2023-03-29T08:35:09.613Z,6.20
2023-03-29T08:37:42.277Z,6.40
2023-03-29T08:40:17.714Z,6.60
2023-03-29T08:43:17.969Z,6.70
2023-03-29T08:46:23.339Z,6.70
2023-03-29T08:48:56.401Z,6.60
2023-03-29T08:51:27.923Z,6.70
2023-03-29T08:54:05.474Z,7.10
2023-03-29T08:57:04.552Z,7.70
2023-03-29T08:59:37.401Z,8.10
2023-03-29T09:02:15.958Z,8.20
2023-03-29T09:04:43.685Z,8.30
2023-03-29T09:07:24.662Z,7.90
2023-03-29T09:09:54.458Z,7.60
2023-03-29T09:12:59.050Z,7.90
2023-03-29T09:15:44.922Z,8.80
2023-03-29T09:18:30.399Z,9.40
2023-03-29T09:21:11.387Z,9.60
2023-03-29T09:24:01.140Z,9.70
2023-03-29T09:27:23.306Z,9.70
2023-03-29T09:30:07.629Z,9.40
2023-03-29T09:32:54.465Z,8.70
2023-03-29T09:35:34.557Z,8.80
2023-03-29T09:38:07.418Z,8.60
2023-03-29T09:41:04.703Z,8.70
2023-03-29T09:43:38.308Z,8.80
2023-03-29T09:46:19.929Z,8.60
2023-03-29T09:48:47.829Z,9.00
2023-03-29T09:51:14.596Z,9.10
2023-03-29T09:53:41.271Z,8.90
2023-03-29T09:56:30.127Z,8.90
2023-03-29T09:59:07.398Z,9.30
2023-03-29T10:01:41.523Z,10.10
2023-03-29T10:04:11.209Z,10.30
2023-03-29T10:06:49.427Z,10.60
2023-03-29T10:09:20.671Z,10.90
2023-03-29T10:11:55.215Z,10.10
2023-03-29T10:14:37.159Z,9.70
2023-03-29T10:17:19.804Z,9.50
2023-03-29T10:19:51.347Z,10.00
2023-03-29T10:22:23.015Z,10.00
2023-03-29T10:24:52.007Z,10.10
2023-03-29T10:27:28.562Z,10.90
2023-03-29T10:29:56.878Z,10.60
2023-03-29T10:32:36.638Z,10.10
2023-03-29T10:35:18.382Z,10.40
2023-03-29T10:37:49.827Z,10.50
2023-03-29T10:40:26.631Z,10.40
2023-03-29T10:42:57.771Z,10.40
2023-03-29T10:45:34.796Z,11.00
2023-03-29T10:48:04.178Z,10.50
2023-03-29T10:50:35.879Z,10.00
2023-03-29T10:53:03.236Z,10.10
2023-03-29T10:55:41.023Z,9.90
2023-03-29T10:58:16.648Z,10.00
2023-03-29T11:00:55.139Z,10.00
2023-03-29T11:03:28.059Z,9.70
2023-03-29T11:06:11.903Z,9.70
2023-03-29T11:08:48.934Z,9.60
2023-03-29T11:11:49.237Z,9.60
2023-03-29T11:14:27.971Z,9.50
2023-03-29T11:17:16.243Z,10.10
2023-03-29T11:20:18.285Z,10.80
2023-03-29T11:22:47.711Z,10.30
2023-03-29T11:25:14.985Z,10.00
2023-03-29T11:28:02.457Z,10.10
2023-03-29T11:30:44.303Z,10.20
2023-03-29T11:33:13.803Z,9.70
2023-03-29T11:35:42.811Z,9.70
2023-03-29T11:38:35.742Z,9.80
2023-03-29T11:41:08.262Z,9.80
2023-03-29T11:43:54.967Z,9.90
2023-03-29T11:46:32.181Z,9.90
2023-03-29T11:49:25.204Z,9.80
2023-03-29T11:52:01.246Z,10.30
2023-03-29T11:54:30.330Z,10.40
2023-03-29T11:57:00.606Z,10.10
2023-03-29T11:59:40.913Z,10.00
2023-03-29T12:02:35.980Z,10.10
2023-03-29T12:05:10.981Z,10.00
2023-03-29T12:07:42.279Z,10.10
2023-03-29T12:10:19.127Z,10.10
2023-03-29T12:13:02.298Z,10.30
2023-03-29T12:15:36.832Z,10.30
2023-03-29T12:18:25.543Z,10.20
2023-03-29T12:20:57.530Z,9.90
2023-03-29T12:23:25.534Z,9.80
2023-03-29T12:26:12.134Z,10.10
2023-03-29T12:28:53.445Z,10.40
2023-03-29T12:31:48.154Z,10.60
2023-03-29T12:34:17.940Z,11.40
2023-03-29T12:37:20.938Z,10.90
2023-03-29T12:40:14.963Z,10.90
2023-03-29T12:43:03.846Z,10.70
2023-03-29T12:45:54.897Z,10.60
2023-03-29T12:48:27.272Z,10.50
2023-03-29T12:51:01.273Z,10.40
2023-03-29T12:53:54.810Z,10.40
2023-03-29T12:56:23.727Z,10.50
2023-03-29T12:58:59.343Z,10.70
2023-03-29T13:01:41.348Z,10.90
2023-03-29T13:04:22.342Z,10.90
2023-03-29T13:06:48.865Z,10.90
2023-03-29T13:09:29.726Z,10.80
2023-03-29T13:12:04.095Z,11.00
2023-03-29T13:14:34.722Z,11.10
2023-03-29T13:17:17.696Z,10.90
2023-03-29T13:20:04.210Z,10.70
2023-03-29T13:22:46.800Z,11.00
2023-03-29T13:25:51.175Z,11.00
2023-03-29T13:28:23.154Z,10.90
2023-03-29T13:31:03.428Z,10.80
2023-03-29T13:33:43.417Z,10.90
2023-03-29T13:36:29.342Z,10.70
2023-03-29T13:39:01.736Z,10.80
2023-03-29T13:41:40.690Z,10.70
2023-03-29T13:44:48.880Z,10.90
2023-03-29T13:47:44.748Z,11.30
2023-03-29T13:50:28.972Z,10.80
2023-03-29T13:53:19.712Z,10.80
2023-03-29T13:55:48.648Z,10.90
2023-03-29T13:58:38.240Z,11.10
2023-03-29T14:01:16.233Z,10.90
2023-03-29T14:03:48.439Z,10.90
2023-03-29T14:06:18.827Z,11.00
2023-03-29T14:08:45.810Z,10.80
2023-03-29T14:11:23.014Z,10.90
2023-03-29T14:13:54.492Z,10.90
2023-03-29T14:16:21.555Z,11.00
2023-03-29T14:18:51.251Z,11.10
2023-03-29T14:21:18.452Z,10.70
2023-03-29T14:23:46.958Z,10.40
2023-03-29T14:26:19.907Z,10.30
2023-03-29T14:28:51.876Z,10.30
2023-03-29T14:31:40.004Z,10.20
2023-03-29T14:34:14.992Z,10.30
2023-03-29T14:36:44.796Z,10.30
2023-03-29T14:39:20.712Z,10.30
2023-03-29T14:41:50.670Z,10.30
2023-03-29T14:44:18.703Z,10.50
2023-03-29T14:46:46.740Z,10.40
2023-03-29T14:49:18.068Z,10.30
2023-03-29T14:51:45.926Z,10.50
2023-03-29T14:54:29.806Z,10.50
2023-03-29T14:56:56.385Z,10.60
2023-03-29T14:59:35.174Z,10.60
2023-03-29T15:02:01.811Z,10.60
2023-03-29T15:04:35.641Z,10.50
2023-03-29T15:07:04.428Z,10.60
2023-03-29T15:09:34.084Z,10.80
2023-03-29T15:12:02.135Z,10.90
2023-03-29T15:14:36.838Z,10.80
2023-03-29T15:17:06.991Z,10.70
2023-03-29T15:19:34.254Z,10.60
2023-03-29T15:22:05.951Z,10.60
2023-03-29T15:24:33.761Z,10.50
2023-03-29T15:27:01.561Z,10.60
2023-03-29T15:29:43.279Z,10.30
2023-03-29T15:32:20.516Z,10.20
2023-03-29T15:34:58.026Z,10.40
2023-03-29T15:37:24.905Z,10.40
2023-03-29T15:39:54.015Z,10.20
2023-03-29T15:42:21.003Z,10.30
2023-03-29T15:44:47.617Z,10.60
2023-03-29T15:47:14.458Z,10.50
2023-03-29T15:49:41.156Z,10.50
2023-03-29T15:52:07.822Z,10.60
2023-03-29T15:54:37.001Z,10.60
2023-03-29T15:57:08.124Z,10.50
2023-03-29T15:59:36.314Z,10.50
2023-03-29T16:02:03.144Z,10.60
2023-03-29T16:04:29.891Z,10.70
2023-03-29T16:06:57.595Z,10.70
2023-03-29T16:09:25.581Z,10.70
2023-03-29T16:11:52.624Z,10.70
2023-03-29T16:14:27.823Z,10.80
2023-03-29T16:16:55.525Z,10.70
2023-03-29T16:19:22.726Z,11.00
2023-03-29T16:21:49.819Z,10.80
2023-03-29T16:24:28.004Z,10.80
2023-03-29T16:26:57.159Z,10.80
2023-03-29T16:29:24.711Z,11.00
2023-03-29T16:31:52.737Z,10.90
2023-03-29T16:34:22.735Z,10.60
2023-03-29T16:36:49.866Z,10.70
2023-03-29T16:39:18.096Z,10.70
2023-03-29T16:41:46.863Z,10.80
2023-03-29T16:44:16.460Z,10.70
2023-03-29T16:46:42.934Z,10.70
2023-03-29T16:49:13.812Z,10.70
2023-03-29T16:51:40.425Z,10.60
2023-03-29T16:54:07.320Z,10.60
2023-03-29T16:56:36.377Z,10.90
2023-03-29T16:59:03.721Z,10.70
2023-03-29T17:01:30.336Z,10.70
2023-03-29T17:03:57.286Z,10.60
2023-03-29T17:06:24.059Z,10.50
2023-03-29T17:08:50.657Z,10.60
2023-03-29T17:11:17.528Z,10.60
2023-03-29T17:13:44.538Z,10.70
2023-03-29T17:16:11.344Z,10.50
2023-03-29T17:18:37.981Z,10.50
2023-03-29T17:21:04.919Z,10.50
2023-03-29T17:23:31.554Z,10.80
2023-03-29T17:25:58.081Z,10.90
2023-03-29T17:28:24.715Z,10.80
2023-03-29T17:30:51.448Z,10.60
2023-03-29T17:33:22.441Z,10.70
2023-03-29T17:35:49.577Z,10.60
2023-03-29T17:38:16.223Z,10.50
2023-03-29T17:40:42.785Z,10.50
2023-03-29T17:43:09.294Z,10.70
2023-03-29T17:45:35.965Z,10.70
2023-03-29T17:48:05.520Z,10.50
2023-03-29T17:50:33.005Z,10.70
2023-03-29T17:52:59.598Z,10.80
2023-03-29T17:55:26.444Z,10.80
2023-03-29T17:57:52.990Z,10.70
2023-03-29T18:00:20.006Z,10.50
2023-03-29T18:02:46.711Z,10.70
2023-03-29T18:05:13.486Z,10.80
2023-03-29T18:07:40.339Z,10.80
2023-03-29T18:10:08.100Z,10.90
2023-03-29T18:12:34.974Z,10.70
2023-03-29T18:15:02.140Z,10.80
2023-03-29T18:17:28.867Z,10.90
2023-03-29T18:19:55.643Z,10.70
2023-03-29T18:22:23.888Z,10.70
2023-03-29T18:24:50.950Z,10.90
2023-03-29T18:27:18.318Z,10.70
2023-03-29T18:29:44.930Z,10.50
2023-03-29T18:32:11.739Z,10.50
2023-03-29T18:34:39.254Z,10.80
2023-03-29T18:37:06.136Z,10.60
2023-03-29T18:39:34.648Z,10.70
2023-03-29T18:42:01.614Z,10.60
2023-03-29T18:44:28.644Z,10.80
2023-03-29T18:46:55.217Z,10.70
2023-03-29T18:49:21.760Z,10.60
2023-03-29T18:51:49.912Z,10.70
2023-03-29T18:54:17.442Z,10.70
2023-03-29T18:56:44.023Z,10.80
2023-03-29T18:59:10.764Z,10.70
2023-03-29T19:01:37.645Z,10.60
2023-03-29T19:04:04.556Z,10.80
2023-03-29T19:06:31.823Z,10.70
2023-03-29T19:09:01.835Z,10.50
2023-03-29T19:11:29.607Z,10.50
2023-03-29T19:13:56.281Z,10.50
2023-03-29T19:16:22.983Z,10.40
2023-03-29T19:18:49.612Z,10.40
2023-03-29T19:21:16.377Z,10.20
2023-03-29T19:23:42.930Z,10.10
2023-03-29T19:26:10.644Z,10.20
2023-03-29T19:28:37.415Z,10.20
2023-03-29T19:31:04.454Z,10.20
2023-03-29T19:33:32.275Z,10.30
2023-03-29T19:35:59.011Z,10.30
2023-03-29T19:38:25.682Z,10.50
2023-03-29T19:40:52.391Z,10.40
2023-03-29T19:43:20.629Z,10.40
2023-03-29T19:45:48.814Z,10.50
2023-03-29T19:48:22.284Z,10.40
2023-03-29T19:50:49.450Z,10.30
2023-03-29T19:53:16.104Z,10.20
2023-03-29T19:55:44.145Z,10.60
2023-03-29T19:58:10.769Z,10.80
2023-03-29T20:00:39.082Z,10.60
2023-03-29T20:03:09.779Z,10.70
2023-03-29T20:05:38.774Z,10.50
2023-03-29T20:08:06.356Z,10.80
2023-03-29T20:10:33.701Z,10.90
2023-03-29T20:13:00.448Z,11.10
2023-03-29T20:15:27.156Z,10.50
2023-03-29T20:17:57.030Z,10.40
2023-03-29T20:20:25.347Z,10.60
2023-03-29T20:22:53.946Z,10.90
2023-03-29T20:25:21.235Z,10.70
2023-03-29T20:27:49.365Z,11.00
2023-03-29T20:30:16.378Z,11.30
2023-03-29T20:32:43.122Z,10.70
2023-03-29T20:35:11.096Z,10.90
2023-03-29T20:37:37.714Z,11.00
2023-03-29T20:40:05.401Z,10.50
2023-03-29T20:42:34.401Z,10.60
2023-03-29T20:45:01.365Z,11.00
2023-03-29T20:47:29.360Z,11.40
2023-03-29T20:49:56.800Z,11.00
2023-03-29T20:52:24.201Z,11.10
2023-03-29T20:54:50.932Z,11.30
2023-03-29T20:57:20.775Z,11.30
2023-03-29T20:59:49.092Z,11.20
2023-03-29T21:02:20.735Z,10.80
2023-03-29T21:04:53.858Z,11.40
2023-03-29T21:07:21.476Z,11.10
2023-03-29T21:09:49.979Z,10.80
2023-03-29T21:12:16.798Z,10.80
2023-03-29T21:14:43.598Z,11.10
2023-03-29T21:17:10.246Z,11.10
2023-03-29T21:19:38.960Z,10.70
2023-03-29T21:22:05.954Z,10.50
2023-03-29T21:24:33.246Z,10.70
2023-03-29T21:27:00.486Z,10.60
2023-03-29T21:29:27.201Z,10.60
2023-03-29T21:31:56.003Z,10.50
2023-03-29T21:34:22.606Z,10.50
2023-03-29T21:36:49.603Z,10.40
2023-03-29T21:39:16.228Z,10.30
2023-03-29T21:41:42.863Z,10.50
2023-03-29T21:44:09.402Z,10.40
2023-03-29T21:46:36.330Z,10.50
2023-03-29T21:49:02.975Z,10.40
2023-03-29T21:51:29.556Z,10.20
2023-03-29T21:53:56.105Z,10.50
2023-03-29T21:56:23.038Z,10.60
2023-03-29T21:58:49.701Z,10.70
2023-03-29T22:01:16.305Z,10.50
2023-03-29T22:03:43.114Z,11.00
2023-03-29T22:06:12.967Z,11.10
2023-03-29T22:08:39.946Z,11.20
2023-03-29T22:11:13.728Z,11.40
2023-03-29T22:13:40.857Z,11.70
2023-03-29T22:16:08.402Z,11.60
2023-03-29T22:18:42.960Z,11.90
2023-03-29T22:21:14.412Z,11.70
2023-03-29T22:24:01.265Z,11.10
2023-03-29T22:26:30.377Z,11.00
2023-03-29T22:28:58.813Z,11.00
2023-03-29T22:31:26.731Z,11.20
2023-03-29T22:33:53.811Z,11.40
2023-03-29T22:36:30.998Z,11.20
2023-03-29T22:38:57.903Z,11.60
2023-03-29T22:41:26.046Z,11.60
2023-03-29T22:43:53.941Z,11.30
2023-03-29T22:46:21.072Z,10.70
2023-03-29T22:48:48.833Z,10.60
2023-03-29T22:51:16.162Z,10.80
2023-03-29T22:53:42.824Z,10.90
2023-03-29T22:56:09.712Z,10.60
2023-03-29T22:58:37.115Z,10.50
2023-03-29T23:01:04.877Z,11.00
2023-03-29T23:03:32.239Z,10.90
2023-03-29T23:06:02.420Z,10.50
2023-03-29T23:08:30.790Z,10.60
2023-03-29T23:10:57.515Z,11.10
2023-03-29T23:13:25.739Z,11.50
2023-03-29T23:15:54.904Z,11.70
2023-03-29T23:18:23.486Z,11.70
2023-03-29T23:20:52.092Z,11.90
2023-03-29T23:23:19.622Z,11.80
2023-03-29T23:25:47.977Z,11.80
2023-03-29T23:28:16.729Z,11.60
2023-03-29T23:30:43.541Z,11.80
2023-03-29T23:33:10.446Z,11.60
2023-03-29T23:35:37.737Z,11.30
2023-03-29T23:38:05.666Z,11.30
2023-03-29T23:40:34.455Z,11.50
2023-03-29T23:43:01.027Z,11.60
2023-03-29T23:45:28.057Z,11.70
2023-03-29T23:47:55.023Z,11.60
2023-03-29T23:50:22.546Z,11.30
2023-03-29T23:52:51.567Z,11.50
2023-03-29T23:55:18.876Z,11.40
2023-03-29T23:57:45.625Z,11.20
